Time;durP1;ratioP1;P1;durP2;ratioP2;P2;SDS_P1;SDS_P2;PMS_P1;PMS_P2;Temp;Humidity;BMP_temperature;BMP_pressure;BME280_temperature;BME280_humidity;BME280_pressure;Samples;Min_cycle;Max_cycle;Signal;HPM_P1;HPM_P2
2021/12/11 00:02:08;;;;;;;;;;;;;;;23.56;11.05;100853.94;4954245;29;20038;-71
2021/12/11 00:04:34;;;;;;;;;;;;;;;23.53;11.00;100860.78;4954112;29;19919;-71
2021/12/11 00:07:02;;;;;;;;;;;;;;;23.52;10.88;100859.13;4953934;29;19933;-72
2021/12/11 00:09:31;;;;;;;;;;;;;;;23.54;10.87;100858.84;4954157;29;19918;-71
2021/12/11 00:11:58;;;;;;;;;;;;;;;23.52;10.86;100858.31;4954282;29;19918;-71
2021/12/11 00:14:23;;;;;;;;;;;;;;;23.49;11.01;100859.66;4954154;28;19919;-71
2021/12/11 00:16:49;;;;;;;;;;;;;;;23.50;10.93;100860.47;4954409;29;20392;-71
2021/12/11 00:19:35;;;;;;;;;;;;;;;23.50;11.00;100846.84;5053160;28;19924;-71
2021/12/11 00:22:09;;;;;;;;;;;;;;;23.49;11.02;100859.66;5073002;28;20016;-71
2021/12/11 00:24:35;;;;;;;;;;;;;;;23.51;11.02;100856.66;5073934;28;19966;-71
2021/12/11 00:27:03;;;;;;;;;;;;;;;23.50;10.98;100860.47;5056009;28;19920;-71
2021/12/11 00:29:28;;;;;;;;;;;;;;;23.50;10.91;100852.28;5074065;28;19923;-71
2021/12/11 00:32:01;;;;;;;;;;;;;;;23.49;11.09;100856.94;5081591;28;20011;-71
2021/12/11 00:34:26;;;;;;;;;;;;;;;23.46;10.99;100851.16;5093927;28;19916;-70
2021/12/11 00:36:53;;;;;;;;;;;;;;;23.47;10.94;100850.09;5094362;28;19943;-70
2021/12/11 00:39:18;;;;;;;;;;;;;;;23.46;11.12;100851.16;5076689;28;20298;-70
2021/12/11 00:41:50;;;;;;;;;;;;;;;23.46;10.93;100853.88;5094131;28;19965;-70
2021/12/11 00:44:15;;;;;;;;;;;;;;;23.43;10.99;100858.78;5093769;28;19916;-70
2021/12/11 00:46:40;;;;;;;;;;;;;;;23.45;10.96;100847.63;5094166;28;19969;-70
2021/12/11 00:49:07;;;;;;;;;;;;;;;23.44;11.03;100846.81;5094026;28;19916;-70
2021/12/11 00:51:32;;;;;;;;;;;;;;;23.46;11.16;100840.25;5094055;28;19920;-70
2021/12/11 00:53:58;;;;;;;;;;;;;;;23.43;11.21;100850.59;5093911;28;20308;-70
2021/12/11 00:56:41;;;;;;;;;;;;;;;23.43;11.02;100847.88;5094520;28;20055;-70
2021/12/11 00:59:08;;;;;;;;;;;;;;;23.43;11.16;100847.88;5093563;28;20411;-70
2021/12/11 01:01:44;;;;;;;;;;;;;;;23.42;11.21;100848.97;5094062;28;19916;-70
2021/12/11 01:04:14;;;;;;;;;;;;;;;23.42;11.13;100851.69;5093806;28;19923;-70
2021/12/11 01:06:49;;;;;;;;;;;;;;;23.42;11.14;100848.97;5093681;28;20002;-70
2021/12/11 01:09:16;;;;;;;;;;;;;;;23.42;11.07;100848.97;5093842;28;20301;-70
2021/12/11 01:11:49;;;;;;;;;;;;;;;23.45;11.19;100842.16;5093619;28;19916;-70
2021/12/11 01:17:18;;;;;;;;;;;;;;;23.39;11.17;100844.03;5031758;28;19917;-71
2021/12/11 01:19:45;;;;;;;;;;;;;;;23.41;11.14;100847.31;5031441;28;19991;-70
2021/12/11 01:22:21;;;;;;;;;;;;;;;23.43;11.33;100845.16;5031265;28;19931;-70
2021/12/11 01:24:47;;;;;;;;;;;;;;;23.42;11.33;100838.06;5032360;28;20124;-70
2021/12/11 01:27:13;;;;;;;;;;;;;;;23.43;11.32;100841.59;5035469;28;20030;-70
2021/12/11 01:29:39;;;;;;;;;;;;;;;23.41;11.29;100841.88;5035406;28;19917;-70
2021/12/11 01:32:04;;;;;;;;;;;;;;;23.40;11.43;100840.25;5027326;28;19925;-71
2021/12/11 01:34:30;;;;;;;;;;;;;;;23.42;11.22;100838.06;5015963;28;19925;-71
2021/12/11 01:36:55;;;;;;;;;;;;;;;23.42;11.26;100837.22;5015523;28;20331;-71
2021/12/11 01:39:25;;;;;;;;;;;;;;;23.42;11.47;100832.59;5015496;28;19917;-71
2021/12/11 01:41:50;;;;;;;;;;;;;;;23.40;11.36;100834.78;5015822;28;19922;-71
2021/12/11 01:44:17;;;;;;;;;;;;;;;23.43;11.54;100827.97;5015189;28;20044;-71
2021/12/11 01:46:43;;;;;;;;;;;;;;;23.40;11.42;100832.06;5015892;28;19939;-71
2021/12/11 01:49:11;;;;;;;;;;;;;;;23.39;11.43;100824.94;5015005;28;20427;-71
2021/12/11 01:51:38;;;;;;;;;;;;;;;23.38;11.54;100820.56;5015181;28;19917;-71
2021/12/11 01:54:05;;;;;;;;;;;;;;;23.39;11.34;100822.22;5045184;28;19964;-70
2021/12/11 01:56:32;;;;;;;;;;;;;;;23.37;11.66;100818.94;5057481;28;19925;-70
2021/12/11 01:58:59;;;;;;;;;;;;;;;23.39;11.48;100819.50;5057287;28;19921;-70
2021/12/11 02:01:26;;;;;;;;;;;;;;;23.40;11.62;100817.56;5057538;28;19916;-71
2021/12/11 02:03:52;;;;;;;;;;;;;;;23.35;11.46;100818.38;5056929;28;19917;-71
2021/12/11 02:06:17;;;;;;;;;;;;;;;23.35;11.56;100821.13;5057922;28;19924;-70
2021/12/11 02:08:43;;;;;;;;;;;;;;;23.36;11.52;100822.75;5056132;28;20337;-70
2021/12/11 02:11:09;;;;;;;;;;;;;;;23.35;11.70;100810.22;5057747;28;19916;-70
2021/12/11 02:13:45;;;;;;;;;;;;;;;23.37;11.62;100809.91;5057417;28;19939;-70
2021/12/11 02:16:31;;;;;;;;;;;;;;;23.37;11.62;100799.84;5057723;28;20371;-70
2021/12/11 02:18:58;;;;;;;;;;;;;;;23.38;11.75;100806.13;5058057;28;19924;-70
2021/12/11 02:21:34;;;;;;;;;;;;;;;23.36;11.54;100808.28;5064988;28;20062;-70
2021/12/11 02:24:03;;;;;;;;;;;;;;;23.32;11.68;100808.00;5076577;28;19921;-70
2021/12/11 02:26:28;;;;;;;;;;;;;;;23.34;11.81;100816.72;5076262;28;19917;-70
2021/12/11 02:29:04;;;;;;;;;;;;;;;23.33;11.61;100812.34;5076285;28;19924;-70
2021/12/11 02:31:42;;;;;;;;;;;;;;;23.31;11.84;100819.97;5078519;28;19977;-70
2021/12/11 02:34:12;;;;;;;;;;;;;;;23.32;11.75;100820.78;5096624;28;19955;-70
2021/12/11 02:36:41;;;;;;;;;;;;;;;23.36;11.66;100821.94;5077359;28;20255;-70
2021/12/11 02:39:12;;;;;;;;;;;;;;;23.35;11.73;100826.56;5096591;28;19948;-71
2021/12/11 02:41:49;;;;;;;;;;;;;;;23.34;11.61;100815.91;5096668;28;19993;-71
2021/12/11 02:44:34;;;;;;;;;;;;;;;23.32;11.83;100816.19;5098046;28;19975;-70
2021/12/11 02:47:06;;;;;;;;;;;;;;;23.34;11.71;100813.19;5079895;28;19963;-71
2021/12/11 02:49:33;;;;;;;;;;;;;;;23.33;11.73;100817.81;5097633;28;20370;-71
2021/12/11 02:52:02;;;;;;;;;;;;;;;23.32;11.67;100808.00;5097910;28;19923;-71
2021/12/11 02:54:32;;;;;;;;;;;;;;;23.34;11.67;100814.00;5098004;28;19916;-71
2021/12/11 02:57:02;;;;;;;;;;;;;;;23.36;11.81;100811.84;5097469;28;19916;-71
2021/12/11 02:59:30;;;;;;;;;;;;;;;23.32;11.67;100809.88;5079802;28;19916;-71
2021/12/11 03:01:57;;;;;;;;;;;;;;;23.34;11.71;100802.28;5096505;28;19916;-71
2021/12/11 03:04:35;;;;;;;;;;;;;;;23.29;11.80;100805.78;5096032;28;19916;-71
2021/12/11 03:07:03;;;;;;;;;;;;;;;23.28;11.89;100795.94;5079313;28;19939;-71
2021/12/11 03:09:29;;;;;;;;;;;;;;;23.30;11.74;100809.31;5095617;28;19959;-71
2021/12/11 03:11:55;;;;;;;;;;;;;;;23.27;11.74;100807.97;5095966;28;20339;-71
2021/12/11 03:14:21;;;;;;;;;;;;;;;23.30;11.83;100807.44;5095795;28;20002;-71
2021/12/11 03:16:48;;;;;;;;;;;;;;;23.31;11.71;100798.16;5095667;28;20393;-71
2021/12/11 03:19:15;;;;;;;;;;;;;;;23.29;11.67;100794.88;5095735;28;19916;-71
2021/12/11 03:21:40;;;;;;;;;;;;;;;23.29;11.86;100789.44;5095294;28;19924;-71
2021/12/11 03:24:05;;;;;;;;;;;;;;;23.30;11.67;100791.09;5095377;28;19942;-71
2021/12/11 03:26:31;;;;;;;;;;;;;;;23.30;11.63;100790.25;5095362;28;19947;-71
2021/12/11 03:28:56;;;;;;;;;;;;;;;23.29;11.74;100789.44;5095296;28;19923;-71
2021/12/11 03:31:21;;;;;;;;;;;;;;;23.29;11.74;100800.34;5095334;28;20319;-71
2021/12/11 03:33:48;;;;;;;;;;;;;;;23.29;11.73;100808.50;5075263;28;19939;-71
2021/12/11 03:36:14;;;;;;;;;;;;;;;23.33;11.84;100801.44;5074984;28;20007;-71
2021/12/11 03:38:40;;;;;;;;;;;;;;;23.30;11.63;100806.59;5074696;28;19916;-71
2021/12/11 03:41:05;;;;;;;;;;;;;;;23.28;11.76;100797.88;5075712;28;19924;-71
2021/12/11 03:43:30;;;;;;;;;;;;;;;23.25;11.72;100801.97;5074970;28;19916;-71
2021/12/11 03:45:56;;;;;;;;;;;;;;;23.29;11.65;100804.97;5074694;28;19916;-71
2021/12/11 03:48:24;;;;;;;;;;;;;;;23.30;11.75;100809.31;5074344;28;19916;-71
2021/12/11 03:50:50;;;;;;;;;;;;;;;23.29;11.67;100805.78;5074679;28;19928;-71
2021/12/11 03:53:15;;;;;;;;;;;;;;;23.27;11.78;100807.97;5074641;28;20347;-71
2021/12/11 03:55:48;;;;;;;;;;;;;;;23.25;11.79;100815.59;5056679;28;19917;-71
2021/12/11 03:58:14;;;;;;;;;;;;;;;23.28;11.67;100809.59;5074909;28;19917;-71
2021/12/11 04:00:40;;;;;;;;;;;;;;;23.27;11.82;100810.69;5074480;28;19932;-71
2021/12/11 04:03:07;;;;;;;;;;;;;;;23.22;11.83;100816.09;5074338;28;19966;-71
2021/12/11 04:05:37;;;;;;;;;;;;;;;23.27;11.78;100807.97;5074369;28;20010;-71
2021/12/11 04:08:03;;;;;;;;;;;;;;;23.26;11.72;100814.50;5074937;28;19959;-71
2021/12/11 04:10:28;;;;;;;;;;;;;;;23.26;11.70;100809.03;5074710;28;19917;-71
2021/12/11 04:12:55;;;;;;;;;;;;;;;23.27;11.74;100809.84;5074968;28;20290;-71
2021/12/11 04:15:20;;;;;;;;;;;;;;;23.26;11.68;100809.03;5076407;28;19929;-71
2021/12/11 04:17:45;;;;;;;;;;;;;;;23.26;11.85;100811.75;5075029;28;19917;-71
2021/12/11 04:20:12;;;;;;;;;;;;;;;23.28;11.78;100815.03;5073971;28;19917;-71
2021/12/11 04:22:37;;;;;;;;;;;;;;;23.24;11.89;100814.75;5073841;28;19925;-71
2021/12/11 04:25:03;;;;;;;;;;;;;;;23.27;11.83;100807.13;5074141;28;19939;-71
2021/12/11 04:27:30;;;;;;;;;;;;;;;23.24;11.92;100808.47;5073769;28;20146;-71
2021/12/11 04:29:56;;;;;;;;;;;;;;;23.27;11.76;100812.56;5074149;28;19916;-71
2021/12/11 04:32:21;;;;;;;;;;;;;;;23.23;11.90;100801.38;5080114;28;20374;-71
2021/12/11 04:34:46;;;;;;;;;;;;;;;23.24;11.76;100811.22;5094370;28;19950;-71
2021/12/11 04:37:16;;;;;;;;;;;;;;;23.25;11.79;100818.31;5094280;28;20000;-71
2021/12/11 04:39:43;;;;;;;;;;;;;;;23.24;11.88;100803.03;5094043;28;20377;-71
2021/12/11 04:42:23;;;;;;;;;;;;;;;23.25;11.90;100815.59;5094180;28;19916;-71
2021/12/11 04:44:49;;;;;;;;;;;;;;;23.23;11.84;100818.56;5094195;28;19916;-71
2021/12/11 04:47:26;;;;;;;;;;;;;;;23.23;11.68;100813.13;5094108;28;19927;-71
2021/12/11 04:49:57;;;;;;;;;;;;;;;23.23;11.92;100812.28;5094230;28;19920;-71
2021/12/11 04:52:46;;;;;;;;;;;;;;;23.21;11.92;100806.28;5093815;28;20002;-71
2021/12/11 04:55:28;;;;;;;;;;;;;;;23.20;11.86;100801.91;5093884;28;20338;-71
2021/12/11 05:00:35;;;;;;;;;;;;;;;23.20;11.83;100810.09;5093306;28;19916;-71
2021/12/11 05:03:27;;;;;;;;;;;;;;;23.19;12.02;100801.06;5093967;28;20301;-71
2021/12/11 05:10:54;;;;;;;;;;;;;;;23.21;11.89;100789.91;5094512;28;19956;-71
2021/12/11 05:13:20;;;;;;;;;;;;;;;23.19;11.82;100798.34;5077356;28;20072;-71
2021/12/11 05:15:46;;;;;;;;;;;;;;;23.20;11.83;100799.19;5094333;28;20378;-71
2021/12/11 05:18:12;;;;;;;;;;;;;;;23.20;12.02;100793.75;5094118;28;19916;-71
2021/12/11 05:20:38;;;;;;;;;;;;;;;23.18;11.97;100787.69;5093980;28;19923;-71
2021/12/11 05:23:03;;;;;;;;;;;;;;;23.19;11.93;100794.81;5075470;28;19924;-71
2021/12/11 05:25:28;;;;;;;;;;;;;;;23.21;11.89;100793.44;5093924;28;19921;-71
2021/12/11 05:27:53;;;;;;;;;;;;;;;23.19;11.92;100789.34;5094064;28;20285;-71
2021/12/11 05:30:20;;;;;;;;;;;;;;;23.18;11.96;100795.88;5093750;28;20336;-71
2021/12/11 05:32:45;;;;;;;;;;;;;;;23.18;12.04;100794.00;5086187;28;19917;-71
2021/12/11 05:35:11;;;;;;;;;;;;;;;23.19;11.98;100792.09;5073594;28;20397;-71
2021/12/11 05:37:36;;;;;;;;;;;;;;;23.18;11.91;100794.00;5073714;28;19962;-71
2021/12/11 05:40:02;;;;;;;;;;;;;;;23.21;11.89;100789.91;5073365;28;19920;-71
2021/12/11 05:42:28;;;;;;;;;;;;;;;23.17;12.16;100786.06;5073579;28;20374;-71
2021/12/11 05:44:53;;;;;;;;;;;;;;;23.17;12.11;100783.34;5073549;28;19917;-71
2021/12/11 05:47:20;;;;;;;;;;;;;;;23.17;12.04;100783.34;5073438;28;19917;-71
2021/12/11 05:49:46;;;;;;;;;;;;;;;23.16;12.16;100782.53;5073247;28;20420;-71
2021/12/11 05:52:11;;;;;;;;;;;;;;;23.16;11.97;100789.88;5055482;28;19916;-71
2021/12/11 05:54:37;;;;;;;;;;;;;;;23.14;12.02;100797.50;5073148;28;19924;-71
2021/12/11 05:57:07;;;;;;;;;;;;;;;23.14;12.05;100794.78;5074078;28;19917;-71
2021/12/11 05:59:33;;;;;;;;;;;;;;;23.15;12.13;100796.44;5073160;28;20371;-71
2021/12/11 06:01:59;;;;;;;;;;;;;;;23.15;12.05;100788.25;5073269;28;19939;-71
2021/12/11 06:04:31;;;;;;;;;;;;;;;23.17;12.16;100781.44;5073945;28;19939;-71
2021/12/11 06:06:56;;;;;;;;;;;;;;;23.17;12.10;100784.16;5073306;28;19951;-71
2021/12/11 06:09:22;;;;;;;;;;;;;;;23.17;12.30;100780.63;5073475;28;19916;-71
2021/12/11 06:11:48;;;;;;;;;;;;;;;23.14;12.24;100781.97;5076168;28;19953;-71
2021/12/11 06:14:16;;;;;;;;;;;;;;;23.14;12.23;100789.31;5077407;28;19916;-71
2021/12/11 06:16:42;;;;;;;;;;;;;;;23.15;12.31;100782.81;5076936;28;19923;-71
2021/12/11 06:19:07;;;;;;;;;;;;;;;23.12;12.27;100795.03;5076638;28;19916;-71
2021/12/11 06:21:32;;;;;;;;;;;;;;;23.15;12.37;100791.78;5076732;28;19974;-71
2021/12/11 06:23:58;;;;;;;;;;;;;;;23.15;12.24;100799.97;5077178;28;19924;-71
2021/12/11 06:26:23;;;;;;;;;;;;;;;23.16;12.37;100787.16;5059215;28;20275;-71
2021/12/11 06:28:48;;;;;;;;;;;;;;;23.14;12.23;100790.13;5077265;28;19917;-71
2021/12/11 06:31:18;;;;;;;;;;;;;;;23.13;12.42;100793.97;5077027;28;19966;-71
2021/12/11 06:33:44;;;;;;;;;;;;;;;23.14;12.37;100801.03;5091020;28;19916;-71
2021/12/11 06:36:13;;;;;;;;;;;;;;;23.14;12.43;100813.84;5096988;28;19927;-71
2021/12/11 06:38:38;;;;;;;;;;;;;;;23.13;12.50;100807.59;5096545;28;19923;-71
2021/12/11 06:41:04;;;;;;;;;;;;;;;23.12;12.34;100811.38;5096726;28;19956;-71
2021/12/11 06:43:29;;;;;;;;;;;;;;;23.12;12.45;100802.41;5096342;28;19916;-71
2021/12/11 06:45:55;;;;;;;;;;;;;;;23.13;12.33;100802.13;5096707;28;19916;-71
2021/12/11 06:48:20;;;;;;;;;;;;;;;23.12;12.49;100799.66;5096280;28;19923;-71
2021/12/11 06:50:46;;;;;;;;;;;;;;;23.13;12.40;100795.84;5096989;28;19924;-71
2021/12/11 06:53:13;;;;;;;;;;;;;;;23.12;12.27;100799.66;5096246;28;19924;-71
2021/12/11 06:55:38;;;;;;;;;;;;;;;23.12;12.46;100800.47;5096367;28;19923;-71
2021/12/11 06:58:03;;;;;;;;;;;;;;;23.14;12.59;100811.13;5097101;28;19921;-71
2021/12/11 07:00:29;;;;;;;;;;;;;;;23.14;12.38;100814.66;5096477;28;19995;-71
2021/12/11 07:02:54;;;;;;;;;;;;;;;23.12;12.49;100811.38;5096112;28;20001;-71
2021/12/11 07:05:19;;;;;;;;;;;;;;;23.11;12.67;100809.75;5096007;28;19963;-71
2021/12/11 07:07:45;;;;;;;;;;;;;;;23.15;12.55;100818.25;5096598;28;19993;-71
2021/12/11 07:10:11;;;;;;;;;;;;;;;23.13;12.52;100825.84;5096343;28;19926;-71
2021/12/11 07:12:36;;;;;;;;;;;;;;;23.12;12.58;100829.66;5096204;28;20016;-71
2021/12/11 07:15:03;;;;;;;;;;;;;;;23.11;12.58;100822.56;5096087;28;20331;-70
2021/12/11 07:17:28;;;;;;;;;;;;;;;23.12;12.57;100826.94;5077833;28;19977;-70
2021/12/11 07:19:53;;;;;;;;;;;;;;;23.10;12.63;100829.91;5095515;28;20358;-71
2021/12/11 07:22:18;;;;;;;;;;;;;;;23.13;12.62;100823.09;5094688;28;19920;-71
2021/12/11 07:24:45;;;;;;;;;;;;;;;23.17;12.52;100818.78;5095540;28;19920;-71
2021/12/11 07:27:11;;;;;;;;;;;;;;;23.14;12.54;100822.03;5095820;28;19969;-71
2021/12/11 07:29:36;;;;;;;;;;;;;;;23.10;12.69;100820.94;5095991;28;19920;-71
2021/12/11 07:32:02;;;;;;;;;;;;;;;23.13;12.62;100823.09;5095788;28;20397;-71
2021/12/11 07:34:27;;;;;;;;;;;;;;;23.11;12.54;100826.13;5076101;28;20394;-71
2021/12/11 07:36:53;;;;;;;;;;;;;;;23.11;12.66;100817.09;5075312;28;19917;-71
2021/12/11 07:39:19;;;;;;;;;;;;;;;23.09;12.70;100830.19;5074958;28;20326;-71
2021/12/11 07:41:44;;;;;;;;;;;;;;;23.09;12.65;100835.63;5075307;28;20359;-71
2021/12/11 07:44:09;;;;;;;;;;;;;;;23.09;12.81;100839.16;5074922;28;20393;-71
2021/12/11 07:46:34;;;;;;;;;;;;;;;23.09;12.73;100832.91;5075039;28;19962;-71
2021/12/11 07:49:00;;;;;;;;;;;;;;;23.09;12.67;100819.28;5074938;28;19932;-71
2021/12/11 07:51:26;;;;;;;;;;;;;;;23.09;12.77;100817.34;5075393;28;19917;-71
2021/12/11 07:53:51;;;;;;;;;;;;;;;23.11;12.77;100817.94;5074940;28;20393;-71
2021/12/11 07:56:18;;;;;;;;;;;;;;;23.11;12.91;100811.66;5075044;28;19995;-71
2021/12/11 07:58:44;;;;;;;;;;;;;;;23.11;12.60;100808.91;5074885;28;19917;-71
2021/12/11 08:01:09;;;;;;;;;;;;;;;23.09;12.76;100811.09;5075028;28;19999;-71
2021/12/11 08:03:34;;;;;;;;;;;;;;;23.10;12.70;100804.56;5074966;28;20344;-71
2021/12/11 08:06:00;;;;;;;;;;;;;;;23.09;12.74;100811.09;5074605;28;19928;-71
2021/12/11 08:08:25;;;;;;;;;;;;;;;23.09;12.86;100805.63;5074935;28;19956;-71
2021/12/11 08:10:53;;;;;;;;;;;;;;;23.05;12.99;100811.59;5075139;28;20359;-71
2021/12/11 08:13:18;;;;;;;;;;;;;;;23.08;12.78;100814.88;5074222;28;19916;-71
2021/12/11 08:15:44;;;;;;;;;;;;;;;23.08;12.87;100821.19;5074748;28;19916;-71
2021/12/11 08:18:09;;;;;;;;;;;;;;;23.09;12.94;100822.00;5074456;28;20468;-71
2021/12/11 08:20:35;;;;;;;;;;;;;;;23.11;12.83;100817.94;5074639;28;19920;-70
2021/12/11 08:23:00;;;;;;;;;;;;;;;23.08;13.04;100814.88;5074383;28;20005;-71
2021/12/11 08:25:26;;;;;;;;;;;;;;;23.09;12.91;100811.09;5074942;28;19916;-71
2021/12/11 08:27:52;;;;;;;;;;;;;;;23.07;12.94;100811.34;5074249;28;20323;-71
2021/12/11 08:30:17;;;;;;;;;;;;;;;23.08;12.88;100814.88;5074447;28;19917;-71
2021/12/11 08:32:42;;;;;;;;;;;;;;;23.08;12.92;100810.28;5077949;28;20419;-71
2021/12/11 08:35:09;;;;;;;;;;;;;;;23.06;13.03;100816.00;5094648;28;19974;-71
2021/12/11 08:37:34;;;;;;;;;;;;;;;23.06;13.06;100813.25;5094811;28;19970;-71
2021/12/11 08:40:00;;;;;;;;;;;;;;;23.09;13.04;100811.09;5094868;28;20010;-71
2021/12/11 08:42:25;;;;;;;;;;;;;;;23.08;13.12;100802.09;5094419;28;19916;-71
2021/12/11 08:44:57;;;;;;;;;;;;;;;23.08;13.12;100812.16;5094441;28;19970;-71
2021/12/11 08:47:22;;;;;;;;;;;;;;;23.08;13.04;100801.25;5094699;28;20442;-71
2021/12/11 08:49:48;;;;;;;;;;;;;;;23.08;13.12;100804.81;5094600;28;19951;-71
2021/12/11 08:52:15;;;;;;;;;;;;;;;23.08;13.14;100806.72;5094926;28;19916;-71
2021/12/11 08:54:40;;;;;;;;;;;;;;;23.05;13.24;100806.16;5094993;28;19939;-71
2021/12/11 08:57:06;;;;;;;;;;;;;;;23.06;13.10;100802.34;5094469;28;19923;-71
2021/12/11 08:59:31;;;;;;;;;;;;;;;23.08;13.32;100803.97;5094779;28;19916;-71
2021/12/11 09:01:59;;;;;;;;;;;;;;;23.08;13.20;100804.81;5076772;28;19916;-71
2021/12/11 09:04:32;;;;;;;;;;;;;;;23.08;13.33;100806.72;5094633;28;19916;-71
2021/12/11 09:06:58;;;;;;;;;;;;;;;23.07;13.21;100811.34;5094386;28;20388;-71
2021/12/11 09:09:27;;;;;;;;;;;;;;;23.09;13.18;100816.53;5094890;28;19956;-71
2021/12/11 09:12:06;;;;;;;;;;;;;;;23.04;13.46;100815.41;5094904;28;20270;-71
2021/12/11 09:14:34;;;;;;;;;;;;;;;23.07;13.27;100814.06;5094520;28;19970;-71
2021/12/11 09:17:02;;;;;;;;;;;;;;;23.05;13.40;100811.59;5094174;28;19917;-71
2021/12/11 09:19:33;;;;;;;;;;;;;;;23.06;13.29;100810.53;5076523;28;19955;-71
2021/12/11 09:22:02;;;;;;;;;;;;;;;23.05;13.58;100799.84;5094180;28;19920;-71
2021/12/11 09:24:39;;;;;;;;;;;;;;;23.06;13.46;100802.34;5094398;28;19960;-71
2021/12/11 09:27:11;;;;;;;;;;;;;;;23.05;13.37;100803.44;5076251;28;20443;-71
2021/12/11 09:29:51;;;;;;;;;;;;;;;23.05;13.47;100797.97;5094843;28;19963;-71
2021/12/11 09:32:19;;;;;;;;;;;;;;;23.04;13.50;100801.78;5094622;28;20027;-71
2021/12/11 09:34:52;;;;;;;;;;;;;;;23.06;13.47;100807.81;5075385;28;20351;-71
2021/12/11 09:37:18;;;;;;;;;;;;;;;23.08;13.50;100803.97;5074401;28;19916;-71
2021/12/11 09:39:46;;;;;;;;;;;;;;;23.05;13.67;100805.31;5056740;28;20370;-71
2021/12/11 09:42:11;;;;;;;;;;;;;;;23.02;13.71;100803.91;5074526;28;20003;-71
2021/12/11 09:44:38;;;;;;;;;;;;;;;23.00;13.65;100797.91;5074332;28;20386;-71
2021/12/11 09:47:05;;;;;;;;;;;;;;;23.00;13.66;100792.47;5077512;28;19948;-71
2021/12/11 09:49:32;;;;;;;;;;;;;;;23.02;13.66;100790.28;5078284;28;19936;-71
2021/12/11 09:52:03;;;;;;;;;;;;;;;23.02;13.77;100790.28;5078510;28;19974;-71
2021/12/11 09:54:29;;;;;;;;;;;;;;;23.02;13.75;100789.47;5078389;28;19917;-71
2021/12/11 09:56:59;;;;;;;;;;;;;;;23.05;13.67;100800.69;5078347;28;19939;-71
2021/12/11 09:59:24;;;;;;;;;;;;;;;23.05;13.80;100800.69;5077811;28;19924;-71
2021/12/11 10:01:52;;;;;;;;;;;;;;;23.08;13.80;100798.53;5077530;28;19982;-71
2021/12/11 10:04:27;;;;;;;;;;;;;;;23.04;13.72;100804.50;5077370;28;19923;-71
2021/12/11 10:09:28;;;;;;;;;;;;;;;23.03;13.90;100813.75;5077419;28;20351;-71
2021/12/11 10:11:55;;;;;;;;;;;;;;;23.05;13.73;100811.59;5077188;28;19967;-71
2021/12/11 10:14:22;;;;;;;;;;;;;;;23.05;13.93;100827.13;5077150;28;19920;-71
2021/12/11 10:16:48;;;;;;;;;;;;;;;23.03;13.87;100829.28;5076721;28;20386;-71
2021/12/11 10:19:14;;;;;;;;;;;;;;;23.01;13.81;100837.72;5077055;28;19917;-71
2021/12/11 10:21:44;;;;;;;;;;;;;;;23.02;13.89;100824.91;5076765;28;19920;-71
2021/12/11 10:24:10;;;;;;;;;;;;;;;23.01;13.84;100821.38;5076834;28;19921;-71
2021/12/11 10:26:35;;;;;;;;;;;;;;;23.02;13.94;100816.72;5076563;28;20351;-71
2021/12/11 10:29:01;;;;;;;;;;;;;;;23.03;14.05;100823.84;5076699;28;19924;-71
2021/12/11 10:31:28;;;;;;;;;;;;;;;23.03;14.12;100816.47;5076847;28;20343;-71
2021/12/11 10:33:57;;;;;;;;;;;;;;;23.02;13.95;100809.38;5086538;28;19999;-71
2021/12/11 10:36:25;;;;;;;;;;;;;;;23.02;13.95;100812.09;5096595;28;19916;-71
2021/12/11 10:38:51;;;;;;;;;;;;;;;22.99;14.15;100822.69;5097162;28;19920;-71
2021/12/11 10:41:16;;;;;;;;;;;;;;;23.00;13.96;100811.53;5096245;28;20320;-71
2021/12/11 10:43:47;;;;;;;;;;;;;;;23.02;14.00;100811.28;5096545;28;19966;-71
2021/12/11 10:46:13;;;;;;;;;;;;;;;23.03;14.11;100802.84;5096277;28;19947;-71
2021/12/11 10:48:38;;;;;;;;;;;;;;;23.04;14.04;100793.59;5096576;28;19963;-70
2021/12/11 10:51:08;;;;;;;;;;;;;;;23.01;14.11;100799.56;5096374;28;19923;-71
2021/12/11 10:53:34;;;;;;;;;;;;;;;23.01;14.20;100806.94;5096016;28;19916;-71
2021/12/11 10:56:00;;;;;;;;;;;;;;;23.00;14.13;100800.63;5096315;28;19916;-71
2021/12/11 10:58:27;;;;;;;;;;;;;;;22.99;14.07;100785.38;5095140;28;19923;-71
2021/12/11 11:00:55;;;;;;;;;;;;;;;23.00;14.24;100787.00;5096412;28;20393;-71
2021/12/11 11:03:20;;;;;;;;;;;;;;;23.01;14.14;100779.66;5096104;28;19920;-71
2021/12/11 11:05:45;;;;;;;;;;;;;;;23.02;14.13;100787.56;5095559;28;19961;-71
2021/12/11 11:08:11;;;;;;;;;;;;;;;22.98;14.20;100781.00;5096006;28;19916;-71
2021/12/11 11:10:39;;;;;;;;;;;;;;;23.01;14.21;100785.13;5095771;28;20378;-71
2021/12/11 11:13:06;;;;;;;;;;;;;;;22.96;14.19;100779.63;5095806;28;20062;-71
2021/12/11 11:15:31;;;;;;;;;;;;;;;22.99;14.29;100782.66;5095674;28;19922;-71
2021/12/11 11:17:56;;;;;;;;;;;;;;;22.99;14.14;100790.84;5095432;28;19928;-71
2021/12/11 11:20:26;;;;;;;;;;;;;;;22.98;14.25;100789.19;5096525;28;20000;-71
2021/12/11 11:22:51;;;;;;;;;;;;;;;22.99;14.35;100790.84;5095443;28;19924;-71
2021/12/11 11:25:18;;;;;;;;;;;;;;;23.00;14.35;100791.66;5095564;28;19923;-71
2021/12/11 11:27:44;;;;;;;;;;;;;;;22.98;14.41;100805.53;5095223;28;20377;-71
2021/12/11 11:30:11;;;;;;;;;;;;;;;22.96;14.33;100796.78;5095552;28;20102;-71
2021/12/11 11:32:36;;;;;;;;;;;;;;;22.96;14.43;100791.34;5077355;28;20019;-71
2021/12/11 11:35:12;;;;;;;;;;;;;;;22.98;14.26;100802.00;5078195;28;19982;-71
2021/12/11 11:37:38;;;;;;;;;;;;;;;22.99;14.36;100796.28;5075642;28;19916;-71
2021/12/11 11:40:04;;;;;;;;;;;;;;;22.95;14.32;100806.03;5075103;28;20435;-71
2021/12/11 11:42:29;;;;;;;;;;;;;;;23.00;14.46;100799.81;5075150;28;19923;-71
2021/12/11 11:44:55;;;;;;;;;;;;;;;22.97;14.43;100795.69;5074903;28;19917;-71
2021/12/11 11:47:20;;;;;;;;;;;;;;;22.99;14.44;100804.47;5075034;28;19920;-71
2021/12/11 11:49:45;;;;;;;;;;;;;;;22.96;14.33;100802.25;5074932;28;20003;-71
2021/12/11 11:52:12;;;;;;;;;;;;;;;22.98;14.38;100800.06;5074786;28;19916;-71
2021/12/11 11:54:38;;;;;;;;;;;;;;;22.98;14.33;100802.81;5075129;28;19920;-71
2021/12/11 11:57:16;;;;;;;;;;;;;;;22.98;14.28;100810.97;5075325;28;19985;-71
2021/12/11 11:59:41;;;;;;;;;;;;;;;22.99;14.34;100823.53;5075024;28;20304;-71
2021/12/11 12:02:09;;;;;;;;;;;;;;;22.99;14.26;100823.53;5074839;28;19969;-70
2021/12/11 12:04:34;;;;;;;;;;;;;;;22.95;14.48;100816.94;5074748;28;19923;-70
2021/12/11 12:07:02;;;;;;;;;;;;;;;22.96;14.35;100818.59;5075078;28;19924;-70
2021/12/11 12:09:28;;;;;;;;;;;;;;;22.93;14.53;100813.66;5074976;28;19916;-70
2021/12/11 12:11:53;;;;;;;;;;;;;;;22.94;14.36;100804.41;5074761;28;19962;-70
2021/12/11 12:14:23;;;;;;;;;;;;;;;23.00;14.35;100803.34;5074759;28;20266;-71
2021/12/11 12:16:48;;;;;;;;;;;;;;;23.01;14.37;100805.00;5074331;28;19923;-71
2021/12/11 12:19:13;;;;;;;;;;;;;;;22.96;14.27;100802.25;5074516;28;19917;-71
2021/12/11 12:21:39;;;;;;;;;;;;;;;22.99;14.24;100807.19;5073914;28;20363;-71
2021/12/11 12:24:04;;;;;;;;;;;;;;;22.99;14.27;100804.47;5074374;28;19927;-71
2021/12/11 12:26:30;;;;;;;;;;;;;;;22.98;14.38;100810.97;5074385;28;19932;-71
2021/12/11 12:28:55;;;;;;;;;;;;;;;22.98;14.27;100802.00;5056230;28;20007;-71
2021/12/11 12:31:22;;;;;;;;;;;;;;;22.96;14.34;100801.44;5056409;28;19999;-71
2021/12/11 12:33:47;;;;;;;;;;;;;;;22.96;14.34;100804.16;5079784;28;19969;-71
2021/12/11 12:36:13;;;;;;;;;;;;;;;22.98;14.47;100816.44;5094458;28;19920;-71
2021/12/11 12:38:39;;;;;;;;;;;;;;;22.96;14.53;100802.25;5076103;28;19998;-71
2021/12/11 12:41:06;;;;;;;;;;;;;;;22.99;14.34;100807.19;5094252;28;20015;-71
2021/12/11 12:46:16;;;;;;;;;;;;;;;22.98;14.55;100804.72;5094424;28;19924;-71
2021/12/11 12:48:42;;;;;;;;;;;;;;;22.97;14.36;100803.88;5093948;28;19916;-71
2021/12/11 12:51:08;;;;;;;;;;;;;;;22.96;14.53;100802.25;5094011;28;19916;-71
2021/12/11 12:53:34;;;;;;;;;;;;;;;22.96;14.49;100802.25;5094097;28;19916;-71